sensor_id;sensor_type;location;lat;lon;timestamp;P1;durP1;ratioP1;P2;durP2;ratioP2
17832;SDS011;9041;49.718;21.798;2022-12-18T00:00:24;68.87;;;19.27;;
17832;SDS011;9041;49.718;21.798;2022-12-18T00:02:52;77.43;;;21.10;;
17832;SDS011;9041;49.718;21.798;2022-12-18T00:05:19;71.37;;;21.20;;
17832;SDS011;9041;49.718;21.798;2022-12-18T00:07:45;69.47;;;20.57;;
17832;SDS011;9041;49.718;21.798;2022-12-18T00:10:12;74.57;;;17.77;;
17832;SDS011;9041;49.718;21.798;2022-12-18T00:12:47;61.93;;;16.50;;
17832;SDS011;9041;49.718;21.798;2022-12-18T00:15:14;68.60;;;19.53;;
17832;SDS011;9041;49.718;21.798;2022-12-18T00:17:42;64.87;;;18.03;;
17832;SDS011;9041;49.718;21.798;2022-12-18T00:20:12;71.17;;;20.03;;
17832;SDS011;9041;49.718;21.798;2022-12-18T00:22:39;78.10;;;19.03;;
17832;SDS011;9041;49.718;21.798;2022-12-18T00:25:06;73.87;;;17.73;;
17832;SDS011;9041;49.718;21.798;2022-12-18T00:27:33;77.73;;;20.90;;
17832;SDS011;9041;49.718;21.798;2022-12-18T00:30:00;60.97;;;17.87;;
17832;SDS011;9041;49.718;21.798;2022-12-18T00:32:36;67.83;;;20.00;;
17832;SDS011;9041;49.718;21.798;2022-12-18T00:35:03;67.77;;;18.20;;
17832;SDS011;9041;49.718;21.798;2022-12-18T00:37:41;76.30;;;19.63;;
17832;SDS011;9041;49.718;21.798;2022-12-18T00:40:08;72.63;;;19.10;;
17832;SDS011;9041;49.718;21.798;2022-12-18T00:42:36;74.60;;;17.93;;
17832;SDS011;9041;49.718;21.798;2022-12-18T00:45:26;80.70;;;19.83;;
17832;SDS011;9041;49.718;21.798;2022-12-18T00:47:54;75.20;;;20.27;;
17832;SDS011;9041;49.718;21.798;2022-12-18T00:50:21;74.93;;;21.30;;
17832;SDS011;9041;49.718;21.798;2022-12-18T00:52:52;71.40;;;19.93;;
17832;SDS011;9041;49.718;21.798;2022-12-18T00:55:19;74.07;;;20.50;;
17832;SDS011;9041;49.718;21.798;2022-12-18T00:57:45;75.30;;;20.03;;
17832;SDS011;9041;49.718;21.798;2022-12-18T01:00:14;84.03;;;20.80;;
17832;SDS011;9041;49.718;21.798;2022-12-18T01:02:41;73.90;;;20.80;;
17832;SDS011;9041;49.718;21.798;2022-12-18T01:05:15;87.67;;;22.00;;
17832;SDS011;9041;49.718;21.798;2022-12-18T01:07:42;77.17;;;21.37;;
17832;SDS011;9041;49.718;21.798;2022-12-18T01:10:11;75.20;;;20.67;;
17832;SDS011;9041;49.718;21.798;2022-12-18T01:12:38;68.17;;;20.00;;
17832;SDS011;9041;49.718;21.798;2022-12-18T01:15:06;78.63;;;20.47;;
17832;SDS011;9041;49.718;21.798;2022-12-18T01:17:34;78.70;;;21.90;;
17832;SDS011;9041;49.718;21.798;2022-12-18T01:20:01;83.40;;;21.30;;
17832;SDS011;9041;49.718;21.798;2022-12-18T01:22:27;90.10;;;23.53;;
17832;SDS011;9041;49.718;21.798;2022-12-18T01:24:54;72.60;;;19.90;;
17832;SDS011;9041;49.718;21.798;2022-12-18T01:27:22;74.60;;;20.33;;
17832;SDS011;9041;49.718;21.798;2022-12-18T01:29:49;83.70;;;20.30;;
17832;SDS011;9041;49.718;21.798;2022-12-18T01:32:15;92.63;;;22.03;;
17832;SDS011;9041;49.718;21.798;2022-12-18T01:34:42;76.47;;;20.87;;
17832;SDS011;9041;49.718;21.798;2022-12-18T01:37:08;81.73;;;22.07;;
17832;SDS011;9041;49.718;21.798;2022-12-18T01:39:35;77.50;;;22.73;;
17832;SDS011;9041;49.718;21.798;2022-12-18T01:42:08;85.67;;;22.67;;
17832;SDS011;9041;49.718;21.798;2022-12-18T01:45:00;69.47;;;20.30;;
17832;SDS011;9041;49.718;21.798;2022-12-18T01:47:30;81.10;;;22.10;;
17832;SDS011;9041;49.718;21.798;2022-12-18T01:50:00;83.97;;;22.87;;
17832;SDS011;9041;49.718;21.798;2022-12-18T01:52:29;89.20;;;22.87;;
17832;SDS011;9041;49.718;21.798;2022-12-18T01:54:57;81.60;;;22.23;;
17832;SDS011;9041;49.718;21.798;2022-12-18T01:57:26;86.30;;;22.37;;
17832;SDS011;9041;49.718;21.798;2022-12-18T01:59:53;81.87;;;22.73;;
17832;SDS011;9041;49.718;21.798;2022-12-18T02:02:25;78.67;;;22.30;;
17832;SDS011;9041;49.718;21.798;2022-12-18T02:04:53;85.60;;;22.20;;
17832;SDS011;9041;49.718;21.798;2022-12-18T02:07:24;85.93;;;23.93;;
17832;SDS011;9041;49.718;21.798;2022-12-18T02:09:57;91.07;;;24.00;;
17832;SDS011;9041;49.718;21.798;2022-12-18T02:12:30;78.13;;;21.93;;
17832;SDS011;9041;49.718;21.798;2022-12-18T02:15:05;84.30;;;22.60;;
17832;SDS011;9041;49.718;21.798;2022-12-18T02:17:54;88.00;;;23.63;;
17832;SDS011;9041;49.718;21.798;2022-12-18T02:20:23;83.53;;;23.60;;
17832;SDS011;9041;49.718;21.798;2022-12-18T02:22:57;88.70;;;22.43;;
17832;SDS011;9041;49.718;21.798;2022-12-18T02:28:30;76.17;;;20.27;;
17832;SDS011;9041;49.718;21.798;2022-12-18T02:30:59;72.70;;;20.73;;
17832;SDS011;9041;49.718;21.798;2022-12-18T02:33:28;78.60;;;20.73;;
17832;SDS011;9041;49.718;21.798;2022-12-18T02:35:56;84.10;;;19.87;;
17832;SDS011;9041;49.718;21.798;2022-12-18T02:38:23;70.63;;;19.37;;
17832;SDS011;9041;49.718;21.798;2022-12-18T02:40:54;63.73;;;19.60;;
17832;SDS011;9041;49.718;21.798;2022-12-18T02:43:22;65.27;;;18.17;;
17832;SDS011;9041;49.718;21.798;2022-12-18T02:45:52;73.50;;;18.97;;
17832;SDS011;9041;49.718;21.798;2022-12-18T02:48:23;66.70;;;18.73;;
17832;SDS011;9041;49.718;21.798;2022-12-18T02:50:52;65.17;;;18.87;;
17832;SDS011;9041;49.718;21.798;2022-12-18T02:53:24;71.17;;;19.27;;
17832;SDS011;9041;49.718;21.798;2022-12-18T02:55:59;65.63;;;20.33;;
17832;SDS011;9041;49.718;21.798;2022-12-18T02:58:32;58.50;;;18.17;;
17832;SDS011;9041;49.718;21.798;2022-12-18T03:01:03;66.47;;;19.93;;
17832;SDS011;9041;49.718;21.798;2022-12-18T03:03:34;64.40;;;18.90;;
17832;SDS011;9041;49.718;21.798;2022-12-18T03:06:08;59.43;;;17.87;;
17832;SDS011;9041;49.718;21.798;2022-12-18T03:08:37;76.70;;;20.87;;
17832;SDS011;9041;49.718;21.798;2022-12-18T03:11:06;56.87;;;17.50;;
17832;SDS011;9041;49.718;21.798;2022-12-18T03:13:36;64.63;;;19.00;;
17832;SDS011;9041;49.718;21.798;2022-12-18T03:16:05;67.77;;;18.77;;
17832;SDS011;9041;49.718;21.798;2022-12-18T03:18:33;70.10;;;19.20;;
17832;SDS011;9041;49.718;21.798;2022-12-18T03:21:03;65.67;;;17.83;;
17832;SDS011;9041;49.718;21.798;2022-12-18T03:23:33;66.17;;;18.63;;
17832;SDS011;9041;49.718;21.798;2022-12-18T03:26:02;65.90;;;16.93;;
17832;SDS011;9041;49.718;21.798;2022-12-18T03:28:34;60.70;;;17.13;;
17832;SDS011;9041;49.718;21.798;2022-12-18T03:31:05;64.20;;;17.53;;
17832;SDS011;9041;49.718;21.798;2022-12-18T03:33:36;57.57;;;17.73;;
17832;SDS011;9041;49.718;21.798;2022-12-18T03:36:09;65.07;;;17.27;;
17832;SDS011;9041;49.718;21.798;2022-12-18T03:38:35;74.17;;;19.57;;
17832;SDS011;9041;49.718;21.798;2022-12-18T03:41:03;60.10;;;18.40;;
17832;SDS011;9041;49.718;21.798;2022-12-18T03:43:36;62.13;;;16.90;;
17832;SDS011;9041;49.718;21.798;2022-12-18T03:46:11;60.33;;;18.77;;
17832;SDS011;9041;49.718;21.798;2022-12-18T03:48:44;65.00;;;18.40;;
17832;SDS011;9041;49.718;21.798;2022-12-18T03:51:18;64.53;;;18.40;;
17832;SDS011;9041;49.718;21.798;2022-12-18T03:53:50;71.03;;;18.63;;
17832;SDS011;9041;49.718;21.798;2022-12-18T03:56:21;60.03;;;19.03;;
17832;SDS011;9041;49.718;21.798;2022-12-18T03:58:51;55.33;;;17.10;;
17832;SDS011;9041;49.718;21.798;2022-12-18T04:01:20;52.13;;;16.53;;
17832;SDS011;9041;49.718;21.798;2022-12-18T04:03:50;62.07;;;17.43;;
17832;SDS011;9041;49.718;21.798;2022-12-18T04:06:17;52.77;;;17.80;;
17832;SDS011;9041;49.718;21.798;2022-12-18T04:08:46;63.67;;;17.33;;
17832;SDS011;9041;49.718;21.798;2022-12-18T04:11:13;53.63;;;16.90;;
17832;SDS011;9041;49.718;21.798;2022-12-18T04:13:41;58.20;;;18.13;;
17832;SDS011;9041;49.718;21.798;2022-12-18T04:16:14;56.83;;;17.13;;
17832;SDS011;9041;49.718;21.798;2022-12-18T04:18:41;47.90;;;16.00;;
17832;SDS011;9041;49.718;21.798;2022-12-18T04:21:08;49.83;;;17.63;;
17832;SDS011;9041;49.718;21.798;2022-12-18T04:23:34;51.53;;;17.17;;
17832;SDS011;9041;49.718;21.798;2022-12-18T04:26:01;48.97;;;15.70;;
17832;SDS011;9041;49.718;21.798;2022-12-18T04:28:27;49.43;;;16.73;;
17832;SDS011;9041;49.718;21.798;2022-12-18T04:30:55;59.83;;;19.17;;
17832;SDS011;9041;49.718;21.798;2022-12-18T04:33:23;51.80;;;15.80;;
17832;SDS011;9041;49.718;21.798;2022-12-18T04:35:50;55.83;;;16.27;;
17832;SDS011;9041;49.718;21.798;2022-12-18T04:38:17;52.23;;;16.30;;
17832;SDS011;9041;49.718;21.798;2022-12-18T04:40:43;43.97;;;13.80;;
17832;SDS011;9041;49.718;21.798;2022-12-18T04:43:10;48.17;;;15.43;;
17832;SDS011;9041;49.718;21.798;2022-12-18T04:45:36;46.97;;;15.53;;
17832;SDS011;9041;49.718;21.798;2022-12-18T04:48:03;53.13;;;15.87;;
17832;SDS011;9041;49.718;21.798;2022-12-18T04:50:32;50.53;;;16.13;;
17832;SDS011;9041;49.718;21.798;2022-12-18T04:52:58;47.63;;;15.60;;
17832;SDS011;9041;49.718;21.798;2022-12-18T04:55:25;54.40;;;16.43;;
17832;SDS011;9041;49.718;21.798;2022-12-18T04:57:52;46.33;;;14.97;;
17832;SDS011;9041;49.718;21.798;2022-12-18T05:00:18;49.70;;;14.13;;
17832;SDS011;9041;49.718;21.798;2022-12-18T05:02:45;46.23;;;14.73;;
17832;SDS011;9041;49.718;21.798;2022-12-18T05:05:12;45.10;;;15.30;;
17832;SDS011;9041;49.718;21.798;2022-12-18T05:07:41;49.53;;;15.27;;
17832;SDS011;9041;49.718;21.798;2022-12-18T05:10:08;43.33;;;14.77;;
17832;SDS011;9041;49.718;21.798;2022-12-18T05:12:35;46.50;;;14.57;;
17832;SDS011;9041;49.718;21.798;2022-12-18T05:15:23;40.93;;;12.63;;
17832;SDS011;9041;49.718;21.798;2022-12-18T05:17:50;39.13;;;13.47;;
17832;SDS011;9041;49.718;21.798;2022-12-18T05:20:16;32.93;;;11.43;;
17832;SDS011;9041;49.718;21.798;2022-12-18T05:22:51;37.00;;;12.30;;
17832;SDS011;9041;49.718;21.798;2022-12-18T05:25:18;39.33;;;12.83;;
17832;SDS011;9041;49.718;21.798;2022-12-18T05:27:45;45.93;;;13.77;;
17832;SDS011;9041;49.718;21.798;2022-12-18T05:30:13;41.87;;;13.80;;
17832;SDS011;9041;49.718;21.798;2022-12-18T05:32:40;48.97;;;13.70;;
17832;SDS011;9041;49.718;21.798;2022-12-18T05:35:21;43.83;;;13.23;;
17832;SDS011;9041;49.718;21.798;2022-12-18T05:37:47;41.63;;;13.87;;
17832;SDS011;9041;49.718;21.798;2022-12-18T05:40:17;38.33;;;12.70;;
17832;SDS011;9041;49.718;21.798;2022-12-18T05:42:44;44.03;;;14.13;;
17832;SDS011;9041;49.718;21.798;2022-12-18T05:45:11;39.50;;;13.90;;
17832;SDS011;9041;49.718;21.798;2022-12-18T05:47:37;43.63;;;14.40;;
17832;SDS011;9041;49.718;21.798;2022-12-18T05:50:04;39.07;;;14.07;;
17832;SDS011;9041;49.718;21.798;2022-12-18T05:52:32;46.93;;;15.03;;
17832;SDS011;9041;49.718;21.798;2022-12-18T05:54:59;46.57;;;14.57;;
17832;SDS011;9041;49.718;21.798;2022-12-18T05:57:27;44.07;;;14.63;;
17832;SDS011;9041;49.718;21.798;2022-12-18T05:59:53;37.10;;;13.30;;
17832;SDS011;9041;49.718;21.798;2022-12-18T06:02:20;39.40;;;12.10;;
17832;SDS011;9041;49.718;21.798;2022-12-18T06:04:47;35.70;;;11.33;;
17832;SDS011;9041;49.718;21.798;2022-12-18T06:07:13;35.17;;;12.83;;
17832;SDS011;9041;49.718;21.798;2022-12-18T06:09:44;35.57;;;12.10;;
17832;SDS011;9041;49.718;21.798;2022-12-18T06:12:10;41.93;;;13.50;;
17832;SDS011;9041;49.718;21.798;2022-12-18T06:14:38;43.47;;;12.23;;
17832;SDS011;9041;49.718;21.798;2022-12-18T06:17:05;33.73;;;11.07;;
17832;SDS011;9041;49.718;21.798;2022-12-18T06:19:31;33.10;;;9.20;;
17832;SDS011;9041;49.718;21.798;2022-12-18T06:21:58;32.47;;;10.63;;
17832;SDS011;9041;49.718;21.798;2022-12-18T06:24:25;34.67;;;10.40;;
17832;SDS011;9041;49.718;21.798;2022-12-18T06:26:52;38.17;;;11.30;;
17832;SDS011;9041;49.718;21.798;2022-12-18T06:29:18;32.47;;;10.83;;
17832;SDS011;9041;49.718;21.798;2022-12-18T06:31:50;30.73;;;11.43;;
17832;SDS011;9041;49.718;21.798;2022-12-18T06:34:17;31.40;;;10.43;;
17832;SDS011;9041;49.718;21.798;2022-12-18T06:36:46;28.00;;;9.73;;
17832;SDS011;9041;49.718;21.798;2022-12-18T06:39:13;25.40;;;8.33;;
17832;SDS011;9041;49.718;21.798;2022-12-18T06:41:40;33.13;;;9.80;;
17832;SDS011;9041;49.718;21.798;2022-12-18T06:44:07;35.10;;;9.53;;
17832;SDS011;9041;49.718;21.798;2022-12-18T06:46:34;35.97;;;10.27;;
17832;SDS011;9041;49.718;21.798;2022-12-18T06:49:02;29.07;;;10.10;;
17832;SDS011;9041;49.718;21.798;2022-12-18T06:51:28;31.03;;;9.43;;
17832;SDS011;9041;49.718;21.798;2022-12-18T06:53:55;36.57;;;10.90;;
17832;SDS011;9041;49.718;21.798;2022-12-18T06:56:22;32.87;;;10.87;;
17832;SDS011;9041;49.718;21.798;2022-12-18T06:58:48;37.40;;;11.47;;
17832;SDS011;9041;49.718;21.798;2022-12-18T07:01:15;29.17;;;11.07;;
17832;SDS011;9041;49.718;21.798;2022-12-18T07:03:43;36.73;;;11.57;;
17832;SDS011;9041;49.718;21.798;2022-12-18T07:06:15;31.87;;;10.93;;
17832;SDS011;9041;49.718;21.798;2022-12-18T07:08:43;35.03;;;11.93;;
17832;SDS011;9041;49.718;21.798;2022-12-18T07:11:09;28.97;;;10.60;;
17832;SDS011;9041;49.718;21.798;2022-12-18T07:13:36;31.87;;;10.57;;
17832;SDS011;9041;49.718;21.798;2022-12-18T07:16:04;32.67;;;10.33;;
17832;SDS011;9041;49.718;21.798;2022-12-18T07:18:32;32.33;;;11.83;;
17832;SDS011;9041;49.718;21.798;2022-12-18T07:21:01;37.10;;;11.73;;
17832;SDS011;9041;49.718;21.798;2022-12-18T07:23:31;31.37;;;10.70;;
17832;SDS011;9041;49.718;21.798;2022-12-18T07:26:00;34.73;;;11.00;;
17832;SDS011;9041;49.718;21.798;2022-12-18T07:28:27;38.10;;;12.47;;
17832;SDS011;9041;49.718;21.798;2022-12-18T07:30:54;36.70;;;11.73;;
17832;SDS011;9041;49.718;21.798;2022-12-18T07:33:20;35.97;;;12.33;;
17832;SDS011;9041;49.718;21.798;2022-12-18T07:35:47;34.87;;;12.10;;
17832;SDS011;9041;49.718;21.798;2022-12-18T07:38:13;38.70;;;12.83;;
17832;SDS011;9041;49.718;21.798;2022-12-18T07:40:41;40.30;;;12.47;;
17832;SDS011;9041;49.718;21.798;2022-12-18T07:43:13;39.47;;;13.13;;
17832;SDS011;9041;49.718;21.798;2022-12-18T07:45:39;36.67;;;11.33;;
17832;SDS011;9041;49.718;21.798;2022-12-18T07:48:06;36.90;;;13.23;;
17832;SDS011;9041;49.718;21.798;2022-12-18T07:50:33;34.10;;;12.23;;
17832;SDS011;9041;49.718;21.798;2022-12-18T07:53:01;42.07;;;12.60;;
17832;SDS011;9041;49.718;21.798;2022-12-18T07:55:29;35.77;;;11.57;;
17832;SDS011;9041;49.718;21.798;2022-12-18T07:57:59;38.07;;;13.43;;
17832;SDS011;9041;49.718;21.798;2022-12-18T08:00:27;34.97;;;12.70;;
17832;SDS011;9041;49.718;21.798;2022-12-18T08:02:53;43.00;;;13.60;;
17832;SDS011;9041;49.718;21.798;2022-12-18T08:05:20;39.53;;;13.37;;
17832;SDS011;9041;49.718;21.798;2022-12-18T08:07:49;44.30;;;13.10;;
17832;SDS011;9041;49.718;21.798;2022-12-18T08:10:16;39.30;;;13.60;;
17832;SDS011;9041;49.718;21.798;2022-12-18T08:12:43;43.63;;;13.80;;
17832;SDS011;9041;49.718;21.798;2022-12-18T08:15:11;38.80;;;13.63;;
17832;SDS011;9041;49.718;21.798;2022-12-18T08:17:45;40.60;;;13.87;;
17832;SDS011;9041;49.718;21.798;2022-12-18T08:20:11;52.53;;;16.93;;
17832;SDS011;9041;49.718;21.798;2022-12-18T08:22:42;43.90;;;14.73;;
17832;SDS011;9041;49.718;21.798;2022-12-18T08:25:09;39.30;;;13.03;;
17832;SDS011;9041;49.718;21.798;2022-12-18T08:27:36;39.27;;;12.97;;
17832;SDS011;9041;49.718;21.798;2022-12-18T08:30:03;36.57;;;12.63;;
17832;SDS011;9041;49.718;21.798;2022-12-18T08:32:32;35.20;;;12.33;;
17832;SDS011;9041;49.718;21.798;2022-12-18T08:35:01;39.40;;;13.07;;
17832;SDS011;9041;49.718;21.798;2022-12-18T08:37:27;37.10;;;12.37;;
17832;SDS011;9041;49.718;21.798;2022-12-18T08:39:54;33.80;;;12.60;;
17832;SDS011;9041;49.718;21.798;2022-12-18T08:42:20;35.60;;;13.03;;
17832;SDS011;9041;49.718;21.798;2022-12-18T08:45:05;43.03;;;13.27;;
17832;SDS011;9041;49.718;21.798;2022-12-18T08:47:34;40.50;;;12.97;;
17832;SDS011;9041;49.718;21.798;2022-12-18T08:50:00;43.37;;;12.93;;
17832;SDS011;9041;49.718;21.798;2022-12-18T08:52:27;37.87;;;13.13;;
17832;SDS011;9041;49.718;21.798;2022-12-18T08:54:54;41.17;;;14.17;;
17832;SDS011;9041;49.718;21.798;2022-12-18T08:57:20;34.73;;;12.93;;
17832;SDS011;9041;49.718;21.798;2022-12-18T08:59:47;36.97;;;13.40;;
17832;SDS011;9041;49.718;21.798;2022-12-18T09:02:14;43.30;;;12.80;;
17832;SDS011;9041;49.718;21.798;2022-12-18T09:04:42;41.73;;;13.67;;
17832;SDS011;9041;49.718;21.798;2022-12-18T09:07:08;48.17;;;14.60;;
17832;SDS011;9041;49.718;21.798;2022-12-18T09:09:36;45.77;;;13.73;;
17832;SDS011;9041;49.718;21.798;2022-12-18T09:12:03;42.80;;;14.90;;
17832;SDS011;9041;49.718;21.798;2022-12-18T09:14:29;42.83;;;14.23;;
17832;SDS011;9041;49.718;21.798;2022-12-18T09:16:56;47.87;;;14.90;;
17832;SDS011;9041;49.718;21.798;2022-12-18T09:19:23;46.17;;;15.67;;
17832;SDS011;9041;49.718;21.798;2022-12-18T09:21:51;43.73;;;14.80;;
17832;SDS011;9041;49.718;21.798;2022-12-18T09:24:17;41.27;;;15.13;;
17832;SDS011;9041;49.718;21.798;2022-12-18T09:26:44;44.43;;;14.30;;
17832;SDS011;9041;49.718;21.798;2022-12-18T09:29:11;42.07;;;15.20;;
17832;SDS011;9041;49.718;21.798;2022-12-18T09:31:37;43.10;;;15.23;;
17832;SDS011;9041;49.718;21.798;2022-12-18T09:34:04;43.93;;;14.60;;
17832;SDS011;9041;49.718;21.798;2022-12-18T09:36:32;41.13;;;14.53;;
17832;SDS011;9041;49.718;21.798;2022-12-18T09:39:03;39.00;;;13.33;;
17832;SDS011;9041;49.718;21.798;2022-12-18T09:41:39;45.47;;;14.63;;
17832;SDS011;9041;49.718;21.798;2022-12-18T09:44:11;52.23;;;15.47;;
17832;SDS011;9041;49.718;21.798;2022-12-18T09:46:43;49.53;;;16.23;;
17832;SDS011;9041;49.718;21.798;2022-12-18T09:49:13;49.33;;;15.50;;
17832;SDS011;9041;49.718;21.798;2022-12-18T09:51:45;46.40;;;14.63;;
17832;SDS011;9041;49.718;21.798;2022-12-18T09:54:16;49.20;;;14.67;;
17832;SDS011;9041;49.718;21.798;2022-12-18T09:56:46;57.33;;;18.50;;
17832;SDS011;9041;49.718;21.798;2022-12-18T09:59:16;74.03;;;25.03;;
17832;SDS011;9041;49.718;21.798;2022-12-18T10:01:46;63.73;;;20.93;;
17832;SDS011;9041;49.718;21.798;2022-12-18T10:04:13;58.83;;;20.33;;
17832;SDS011;9041;49.718;21.798;2022-12-18T10:06:43;71.67;;;21.57;;
17832;SDS011;9041;49.718;21.798;2022-12-18T10:09:19;59.77;;;17.17;;
17832;SDS011;9041;49.718;21.798;2022-12-18T10:11:54;47.90;;;14.63;;
17832;SDS011;9041;49.718;21.798;2022-12-18T10:14:26;57.70;;;19.57;;
17832;SDS011;9041;49.718;21.798;2022-12-18T10:16:59;63.10;;;20.80;;
17832;SDS011;9041;49.718;21.798;2022-12-18T10:19:39;43.70;;;15.70;;
17832;SDS011;9041;49.718;21.798;2022-12-18T10:22:16;43.23;;;13.73;;
17832;SDS011;9041;49.718;21.798;2022-12-18T10:24:52;42.53;;;14.00;;
17832;SDS011;9041;49.718;21.798;2022-12-18T10:27:22;40.87;;;12.83;;
17832;SDS011;9041;49.718;21.798;2022-12-18T10:29:50;37.43;;;13.00;;
17832;SDS011;9041;49.718;21.798;2022-12-18T10:32:23;34.60;;;12.37;;
17832;SDS011;9041;49.718;21.798;2022-12-18T10:34:51;34.63;;;11.83;;
17832;SDS011;9041;49.718;21.798;2022-12-18T10:37:20;39.83;;;11.93;;
17832;SDS011;9041;49.718;21.798;2022-12-18T10:40:05;44.40;;;14.43;;
17832;SDS011;9041;49.718;21.798;2022-12-18T10:42:34;34.33;;;11.43;;
17832;SDS011;9041;49.718;21.798;2022-12-18T10:45:02;39.33;;;12.13;;
17832;SDS011;9041;49.718;21.798;2022-12-18T10:47:31;35.23;;;11.43;;
17832;SDS011;9041;49.718;21.798;2022-12-18T10:50:00;31.93;;;11.83;;
17832;SDS011;9041;49.718;21.798;2022-12-18T10:52:27;41.07;;;12.67;;
17832;SDS011;9041;49.718;21.798;2022-12-18T10:54:54;35.03;;;11.70;;
17832;SDS011;9041;49.718;21.798;2022-12-18T11:02:54;40.63;;;13.23;;
17832;SDS011;9041;49.718;21.798;2022-12-18T11:05:26;50.53;;;15.23;;
17832;SDS011;9041;49.718;21.798;2022-12-18T11:07:55;42.53;;;14.30;;
17832;SDS011;9041;49.718;21.798;2022-12-18T11:10:22;49.67;;;14.03;;
17832;SDS011;9041;49.718;21.798;2022-12-18T11:12:53;44.57;;;14.13;;
17832;SDS011;9041;49.718;21.798;2022-12-18T11:15:20;47.70;;;14.87;;
17832;SDS011;9041;49.718;21.798;2022-12-18T11:17:48;44.93;;;14.80;;
17832;SDS011;9041;49.718;21.798;2022-12-18T11:20:23;42.83;;;14.20;;
17832;SDS011;9041;49.718;21.798;2022-12-18T11:22:57;45.70;;;14.90;;
17832;SDS011;9041;49.718;21.798;2022-12-18T11:25:24;44.60;;;15.77;;
17832;SDS011;9041;49.718;21.798;2022-12-18T11:27:54;47.67;;;15.97;;
17832;SDS011;9041;49.718;21.798;2022-12-18T11:30:22;51.20;;;16.60;;
17832;SDS011;9041;49.718;21.798;2022-12-18T11:32:53;52.53;;;16.00;;
17832;SDS011;9041;49.718;21.798;2022-12-18T11:35:23;45.80;;;15.50;;
17832;SDS011;9041;49.718;21.798;2022-12-18T11:37:57;44.93;;;14.33;;
17832;SDS011;9041;49.718;21.798;2022-12-18T11:40:30;52.67;;;15.23;;
17832;SDS011;9041;49.718;21.798;2022-12-18T11:43:02;50.83;;;15.17;;
17832;SDS011;9041;49.718;21.798;2022-12-18T11:48:13;43.57;;;14.07;;
17832;SDS011;9041;49.718;21.798;2022-12-18T11:50:47;50.27;;;14.37;;
17832;SDS011;9041;49.718;21.798;2022-12-18T11:53:20;40.73;;;13.20;;
17832;SDS011;9041;49.718;21.798;2022-12-18T11:55:50;38.47;;;13.03;;
17832;SDS011;9041;49.718;21.798;2022-12-18T11:58:26;41.53;;;13.40;;
17832;SDS011;9041;49.718;21.798;2022-12-18T12:01:15;36.90;;;13.40;;
17832;SDS011;9041;49.718;21.798;2022-12-18T12:04:03;45.13;;;13.60;;
17832;SDS011;9041;49.718;21.798;2022-12-18T12:06:41;41.67;;;13.47;;
17832;SDS011;9041;49.718;21.798;2022-12-18T12:09:14;47.03;;;13.97;;
17832;SDS011;9041;49.718;21.798;2022-12-18T12:11:48;51.57;;;15.27;;
17832;SDS011;9041;49.718;21.798;2022-12-18T12:14:27;48.20;;;15.80;;
17832;SDS011;9041;49.718;21.798;2022-12-18T12:17:03;42.90;;;14.17;;
17832;SDS011;9041;49.718;21.798;2022-12-18T12:19:38;45.63;;;13.67;;
17832;SDS011;9041;49.718;21.798;2022-12-18T12:22:11;39.73;;;12.93;;
17832;SDS011;9041;49.718;21.798;2022-12-18T12:24:45;37.40;;;12.63;;
17832;SDS011;9041;49.718;21.798;2022-12-18T12:27:21;42.93;;;12.63;;
17832;SDS011;9041;49.718;21.798;2022-12-18T12:29:58;37.00;;;12.80;;
17832;SDS011;9041;49.718;21.798;2022-12-18T12:32:32;40.47;;;12.63;;
17832;SDS011;9041;49.718;21.798;2022-12-18T12:35:18;39.40;;;12.60;;
17832;SDS011;9041;49.718;21.798;2022-12-18T12:37:54;32.70;;;11.13;;
17832;SDS011;9041;49.718;21.798;2022-12-18T12:40:33;38.20;;;12.47;;
17832;SDS011;9041;49.718;21.798;2022-12-18T12:43:02;36.83;;;11.90;;
17832;SDS011;9041;49.718;21.798;2022-12-18T12:45:42;31.67;;;10.77;;
17832;SDS011;9041;49.718;21.798;2022-12-18T12:48:16;34.40;;;11.93;;
17832;SDS011;9041;49.718;21.798;2022-12-18T12:50:45;34.40;;;12.20;;
17832;SDS011;9041;49.718;21.798;2022-12-18T12:53:15;39.63;;;12.80;;
17832;SDS011;9041;49.718;21.798;2022-12-18T12:55:47;43.60;;;13.47;;
17832;SDS011;9041;49.718;21.798;2022-12-18T12:58:14;38.73;;;12.67;;
17832;SDS011;9041;49.718;21.798;2022-12-18T13:00:54;38.63;;;12.50;;
17832;SDS011;9041;49.718;21.798;2022-12-18T13:03:28;44.30;;;13.23;;
17832;SDS011;9041;49.718;21.798;2022-12-18T13:05:59;39.90;;;12.47;;
17832;SDS011;9041;49.718;21.798;2022-12-18T13:08:30;38.33;;;12.83;;
17832;SDS011;9041;49.718;21.798;2022-12-18T13:10:58;37.57;;;11.93;;
17832;SDS011;9041;49.718;21.798;2022-12-18T13:13:47;36.77;;;12.67;;
17832;SDS011;9041;49.718;21.798;2022-12-18T13:16:16;43.40;;;14.00;;
17832;SDS011;9041;49.718;21.798;2022-12-18T13:18:48;38.57;;;13.57;;
17832;SDS011;9041;49.718;21.798;2022-12-18T13:21:17;42.27;;;13.50;;
17832;SDS011;9041;49.718;21.798;2022-12-18T13:23:48;45.60;;;13.77;;
17832;SDS011;9041;49.718;21.798;2022-12-18T13:26:28;49.20;;;15.90;;
17832;SDS011;9041;49.718;21.798;2022-12-18T13:28:59;42.23;;;13.83;;
17832;SDS011;9041;49.718;21.798;2022-12-18T13:34:35;46.20;;;14.07;;
17832;SDS011;9041;49.718;21.798;2022-12-18T13:43:24;41.20;;;14.80;;
17832;SDS011;9041;49.718;21.798;2022-12-18T13:48:50;51.13;;;15.00;;
17832;SDS011;9041;49.718;21.798;2022-12-18T13:51:19;41.50;;;14.33;;
17832;SDS011;9041;49.718;21.798;2022-12-18T13:53:48;47.37;;;14.53;;
17832;SDS011;9041;49.718;21.798;2022-12-18T13:56:16;38.50;;;14.27;;
17832;SDS011;9041;49.718;21.798;2022-12-18T13:58:43;40.03;;;14.40;;
17832;SDS011;9041;49.718;21.798;2022-12-18T14:01:20;51.90;;;15.67;;
17832;SDS011;9041;49.718;21.798;2022-12-18T14:03:48;44.03;;;14.47;;
17832;SDS011;9041;49.718;21.798;2022-12-18T14:06:19;43.47;;;14.20;;
17832;SDS011;9041;49.718;21.798;2022-12-18T14:08:46;46.13;;;14.63;;
17832;SDS011;9041;49.718;21.798;2022-12-18T14:11:18;42.37;;;14.27;;
17832;SDS011;9041;49.718;21.798;2022-12-18T14:13:47;38.27;;;12.90;;
17832;SDS011;9041;49.718;21.798;2022-12-18T14:16:14;41.47;;;14.37;;
17832;SDS011;9041;49.718;21.798;2022-12-18T14:18:43;38.53;;;12.97;;
17832;SDS011;9041;49.718;21.798;2022-12-18T14:21:17;44.03;;;14.17;;
17832;SDS011;9041;49.718;21.798;2022-12-18T14:23:48;42.70;;;13.47;;
17832;SDS011;9041;49.718;21.798;2022-12-18T14:26:22;45.37;;;14.20;;
17832;SDS011;9041;49.718;21.798;2022-12-18T14:28:55;40.47;;;13.97;;
17832;SDS011;9041;49.718;21.798;2022-12-18T14:31:22;42.60;;;13.90;;
17832;SDS011;9041;49.718;21.798;2022-12-18T14:33:50;45.40;;;14.90;;
17832;SDS011;9041;49.718;21.798;2022-12-18T14:36:22;43.00;;;13.63;;
17832;SDS011;9041;49.718;21.798;2022-12-18T14:38:50;42.40;;;14.67;;
17832;SDS011;9041;49.718;21.798;2022-12-18T14:41:18;41.67;;;14.97;;
17832;SDS011;9041;49.718;21.798;2022-12-18T14:43:47;48.90;;;15.47;;
17832;SDS011;9041;49.718;21.798;2022-12-18T14:46:29;49.00;;;15.60;;
17832;SDS011;9041;49.718;21.798;2022-12-18T14:48:58;45.20;;;15.20;;
17832;SDS011;9041;49.718;21.798;2022-12-18T14:51:27;49.57;;;16.67;;
17832;SDS011;9041;49.718;21.798;2022-12-18T14:54:05;50.37;;;17.03;;
17832;SDS011;9041;49.718;21.798;2022-12-18T14:56:43;61.03;;;17.50;;
17832;SDS011;9041;49.718;21.798;2022-12-18T14:59:12;59.33;;;19.70;;